Time;durP1;ratioP1;P1;durP2;ratioP2;P2;SDS_P1;SDS_P2;PMS_P1;PMS_P2;Temp;Humidity;BMP_temperature;BMP_pressure;BME280_temperature;BME280_humidity;BME280_pressure;Samples;Min_cycle;Max_cycle;Signal;HPM_P1;HPM_P2
2022/01/24 00:01:09;;;;;;;;;;;;;;;9.35;63.40;102474.47;7354655;19;19959;-62
2022/01/24 00:03:34;;;;;;;;;;;;;;;9.36;63.30;102488.41;7362810;19;19923;-62
2022/01/24 00:06:00;;;;;;;;;;;;;;;9.36;63.79;102480.56;7360226;19;20002;-62
2022/01/24 00:08:25;;;;;;;;;;;;;;;9.36;63.73;102475.34;7366705;19;19923;-63
2022/01/24 00:10:52;;;;;;;;;;;;;;;9.35;63.32;102478.81;7360271;19;19918;-62
2022/01/24 00:16:20;;;;;;;;;;;;;;;9.35;63.51;102478.81;7359858;19;20007;-62
2022/01/24 00:26:47;;;;;;;;;;;;;;;9.33;63.47;102477.94;7360309;19;20058;-62
2022/01/24 00:29:14;;;;;;;;;;;;;;;9.34;63.94;102480.56;7363656;19;19930;-63
2022/01/24 00:31:39;;;;;;;;;;;;;;;9.34;63.63;102484.91;7363382;19;20537;-62
2022/01/24 00:34:04;;;;;;;;;;;;;;;9.36;63.52;102480.56;7360544;19;19926;-62
2022/01/24 00:36:30;;;;;;;;;;;;;;;9.35;63.68;102473.63;7362339;19;19927;-63
2022/01/24 00:38:55;;;;;;;;;;;;;;;9.35;63.54;102473.63;7364782;19;19931;-63
2022/01/24 00:41:38;;;;;;;;;;;;;;;9.36;63.50;102475.34;6195468;19;10000487;-62
2022/01/24 00:46:36;;;;;;;;;;;;;;;9.35;63.39;102476.22;7368092;19;19934;-63
2022/01/24 01:00:04;;;;;;;;;;;;;;;9.34;63.72;102482.31;7253633;19;2004695;-62
2022/01/24 01:02:30;;;;;;;;;;;;;;;9.34;63.65;102477.09;7362307;19;19922;-62
2022/01/24 01:05:07;;;;;;;;;;;;;;;9.33;63.48;102471.00;7356584;19;20538;-62
2022/01/24 01:18:15;;;;;;;;;;;;;;;9.33;63.11;102431.03;7357673;19;19937;-62
2022/01/24 01:23:26;;;;;;;;;;;;;;;9.26;63.25;102437.88;7356591;19;19917;-62
2022/01/24 01:25:53;;;;;;;;;;;;;;;9.22;62.85;102437.84;7364040;19;20722;-63
2022/01/24 01:28:19;;;;;;;;;;;;;;;9.18;62.95;102428.25;7360568;19;19911;-62
2022/01/24 01:30:50;;;;;;;;;;;;;;;9.13;63.05;102425.59;7360338;19;19923;-63
2022/01/24 01:33:25;;;;;;;;;;;;;;;9.08;63.02;102437.69;7366771;19;19935;-63
2022/01/24 01:52:39;;;;;;;;;;;;;;;8.77;63.35;102439.94;7366876;19;19930;-62
2022/01/24 01:55:08;;;;;;;;;;;;;;;8.74;63.52;102446.84;7345175;19;19926;-62
2022/01/24 01:57:23;;;;;;;;;;;;;;;8.73;63.12;102450.31;7368705;19;19958;-62
2022/01/24 01:59:49;;;;;;;;;;;;;;;8.66;63.37;102432.81;7366473;19;20396;-63
2022/01/24 02:02:14;;;;;;;;;;;;;;;8.70;63.66;102439.84;7366659;19;19918;-62
2022/01/24 02:04:40;;;;;;;;;;;;;;;8.70;63.57;102434.63;7364688;19;19914;-63
2022/01/24 02:07:09;;;;;;;;;;;;;;;8.71;63.80;102436.38;7365710;19;19923;-62
2022/01/24 02:09:34;;;;;;;;;;;;;;;8.71;63.48;102439.84;7365092;19;20463;-62
2022/01/24 02:12:00;;;;;;;;;;;;;;;8.73;63.95;102445.09;7370193;19;19932;-62
2022/01/24 02:14:36;;;;;;;;;;;;;;;8.73;63.75;102442.50;7366619;19;19936;-63
2022/01/24 02:17:07;;;;;;;;;;;;;;;8.75;63.37;102440.75;7364161;19;19923;-62
2022/01/24 02:22:17;;;;;;;;;;;;;;;8.75;63.45;102443.38;7367378;19;19915;-63
2022/01/24 02:24:53;;;;;;;;;;;;;;;8.73;63.61;102445.97;7363680;19;20010;-63
2022/01/24 02:27:19;;;;;;;;;;;;;;;8.72;63.29;102451.16;7366427;19;19914;-63
2022/01/24 02:32:39;;;;;;;;;;;;;;;8.66;63.63;102453.66;7263901;19;2005153;-62
2022/01/24 02:35:06;;;;;;;;;;;;;;;8.62;63.34;102451.88;7362117;19;19945;-62
2022/01/24 02:37:31;;;;;;;;;;;;;;;8.61;63.60;102450.13;7361115;19;19915;-62
2022/01/24 02:40:02;;;;;;;;;;;;;;;8.57;63.57;102434.47;7363140;19;20332;-62
2022/01/24 02:53:18;;;;;;;;;;;;;;;8.45;63.51;102431.69;6654043;19;10001033;-63
2022/01/24 02:55:44;;;;;;;;;;;;;;;8.44;63.58;102440.34;7365526;19;19918;-62
2022/01/24 02:58:09;;;;;;;;;;;;;;;8.41;63.63;102437.69;7353115;19;19919;-62
2022/01/24 03:00:35;;;;;;;;;;;;;;;8.39;63.69;102429.00;7357645;19;19935;-62
2022/01/24 03:03:00;;;;;;;;;;;;;;;8.38;64.02;102427.25;7368275;19;19918;-63
2022/01/24 03:05:25;;;;;;;;;;;;;;;8.38;64.13;102426.38;7374606;19;20280;-63
2022/01/24 03:07:51;;;;;;;;;;;;;;;8.37;63.87;102415.09;7370795;19;19930;-62
2022/01/24 03:11:00;;;;;;;;;;;;;;;8.38;63.99;102415.97;7363962;19;19965;-62
2022/01/24 03:15:37;;;;;;;;;;;;;;;8.36;63.88;102413.31;7364518;19;19930;-62
2022/01/24 03:18:02;;;;;;;;;;;;;;;8.35;64.16;102414.16;7366059;19;20712;-62
2022/01/24 03:20:27;;;;;;;;;;;;;;;8.34;64.08;102409.81;7362669;19;19922;-62
2022/01/24 03:22:52;;;;;;;;;;;;;;;8.31;64.10;102409.75;7364316;19;20449;-62
2022/01/24 03:25:17;;;;;;;;;;;;;;;8.28;63.92;102410.59;7364302;19;20253;-62
2022/01/24 03:27:43;;;;;;;;;;;;;;;8.25;64.06;102414.88;7360272;19;20252;-63
2022/01/24 03:30:08;;;;;;;;;;;;;;;8.20;64.47;102414.81;7366583;19;19919;-62
2022/01/24 03:32:34;;;;;;;;;;;;;;;8.16;64.28;102415.66;7367877;19;19918;-62
2022/01/24 03:34:59;;;;;;;;;;;;;;;8.13;64.11;102399.09;7364180;19;19919;-62
2022/01/24 03:37:24;;;;;;;;;;;;;;;8.10;64.17;102405.13;7362334;19;20363;-62
2022/01/24 03:39:49;;;;;;;;;;;;;;;8.05;64.63;102402.44;7359706;19;19915;-63
2022/01/24 03:42:15;;;;;;;;;;;;;;;8.00;64.37;102404.09;7364460;19;20239;-62
2022/01/24 03:44:44;;;;;;;;;;;;;;;7.96;64.26;102402.34;7359964;19;20583;-63
2022/01/24 03:47:29;;;;;;;;;;;;;;;7.92;64.42;102405.72;7357462;19;20717;-62
2022/01/24 03:49:55;;;;;;;;;;;;;;;7.87;64.47;102398.72;7362538;19;19922;-62
2022/01/24 03:52:20;;;;;;;;;;;;;;;7.81;64.43;102396.91;7364835;19;19915;-63
2022/01/24 03:54:46;;;;;;;;;;;;;;;7.76;64.40;102401.16;7362895;19;19915;-62
2022/01/24 03:57:13;;;;;;;;;;;;;;;7.71;64.80;102405.41;7363806;19;19930;-63
2022/01/24 03:59:38;;;;;;;;;;;;;;;7.65;64.64;102407.88;7366071;19;19933;-62
2022/01/24 04:02:04;;;;;;;;;;;;;;;7.59;64.47;102399.97;7361608;19;19927;-63
2022/01/24 04:04:29;;;;;;;;;;;;;;;7.51;64.45;102403.34;7368259;19;19921;-63
2022/01/24 04:06:55;;;;;;;;;;;;;;;7.44;64.84;102401.47;7355428;19;19923;-63
2022/01/24 04:09:20;;;;;;;;;;;;;;;7.37;64.70;102402.22;7362741;19;19929;-63
2022/01/24 04:11:50;;;;;;;;;;;;;;;7.30;64.70;102413.34;7366717;19;19951;-63
2022/01/24 04:22:02;;;;;;;;;;;;;;;7.02;64.86;102407.63;7362278;19;19923;-63
2022/01/24 04:24:27;;;;;;;;;;;;;;;6.96;64.82;102410.13;7366533;19;20326;-63
2022/01/24 04:26:53;;;;;;;;;;;;;;;6.87;64.80;102404.72;7362720;19;19926;-63
2022/01/24 04:29:18;;;;;;;;;;;;;;;6.86;65.14;102415.97;7365313;19;19921;-62
2022/01/24 04:31:44;;;;;;;;;;;;;;;6.83;65.24;102426.28;7363118;19;19939;-62
2022/01/24 04:34:09;;;;;;;;;;;;;;;6.78;65.24;102422.72;7364790;19;19910;-63
2022/01/24 04:36:35;;;;;;;;;;;;;;;6.75;65.11;102423.53;7362038;19;19948;-62
2022/01/24 04:39:00;;;;;;;;;;;;;;;6.72;65.29;102422.59;7365885;19;19914;-62
2022/01/24 04:41:33;;;;;;;;;;;;;;;6.69;65.30;102426.03;7359045;19;19932;-62
2022/01/24 04:52:29;;;;;;;;;;;;;;;6.59;65.73;102420.56;7367272;19;19930;-63
2022/01/24 04:54:54;;;;;;;;;;;;;;;6.56;65.78;102430.91;7363245;19;19923;-62
2022/01/24 04:57:23;;;;;;;;;;;;;;;6.53;65.90;102429.09;7364965;19;20400;-62
2022/01/24 04:59:50;;;;;;;;;;;;;;;6.51;65.72;102428.22;7364257;19;19918;-62
2022/01/24 05:02:16;;;;;;;;;;;;;;;6.49;65.99;102435.97;7364952;19;19922;-62
2022/01/24 05:04:41;;;;;;;;;;;;;;;6.46;65.82;102433.31;7365498;19;20336;-63
2022/01/24 05:07:06;;;;;;;;;;;;;;;6.44;65.90;102429.81;7364547;19;19919;-62
2022/01/24 05:09:43;;;;;;;;;;;;;;;6.42;66.11;102421.09;7370809;19;20009;-62
2022/01/24 05:21:23;;;;;;;;;;;;;;;6.41;66.32;102419.34;7370241;19;19929;-62
2022/01/24 05:25:52;;;;;;;;;;;;;;;6.39;66.75;102417.56;7372579;19;19914;-62
2022/01/24 05:28:18;;;;;;;;;;;;;;;6.38;66.44;102427.06;7364190;19;19926;-63
2022/01/24 05:30:43;;;;;;;;;;;;;;;6.39;66.80;102428.81;7363786;19;19919;-62
2022/01/24 05:33:08;;;;;;;;;;;;;;;6.39;67.08;102423.63;7369480;19;19942;-62
2022/01/24 05:35:34;;;;;;;;;;;;;;;6.39;66.82;102428.81;7371033;19;19936;-63
2022/01/24 05:37:59;;;;;;;;;;;;;;;6.39;67.13;102426.22;7368626;19;19977;-63
2022/01/24 05:40:25;;;;;;;;;;;;;;;6.39;66.77;102421.03;7368187;19;19931;-62
2022/01/24 05:42:50;;;;;;;;;;;;;;;6.40;67.24;102427.97;7367189;19;20431;-63
2022/01/24 05:45:15;;;;;;;;;;;;;;;6.40;67.02;102424.50;7368302;19;19911;-61
2022/01/24 05:47:41;;;;;;;;;;;;;;;6.39;67.36;102428.81;7366276;19;19918;-62
2022/01/24 05:50:06;;;;;;;;;;;;;;;6.39;67.32;102436.63;7369967;19;19943;-62
2022/01/24 05:52:32;;;;;;;;;;;;;;;6.38;67.17;102440.03;7369247;19;19915;-62
2022/01/24 05:54:57;;;;;;;;;;;;;;;6.38;67.51;102439.16;7369814;19;19950;-63
2022/01/24 05:57:22;;;;;;;;;;;;;;;6.37;67.59;102434.81;7370428;19;19930;-62
2022/01/24 05:59:48;;;;;;;;;;;;;;;6.35;67.63;102437.38;7367482;19;19930;-62
2022/01/24 06:02:13;;;;;;;;;;;;;;;6.34;67.87;102434.75;7369375;19;19915;-62
2022/01/24 06:04:39;;;;;;;;;;;;;;;6.32;67.44;102446.81;7368792;19;19937;-62
2022/01/24 06:07:04;;;;;;;;;;;;;;;6.29;67.39;102447.63;7364885;19;19911;-62
2022/01/24 06:09:29;;;;;;;;;;;;;;;6.27;67.64;102443.22;7369516;19;19927;-62
2022/01/24 06:11:55;;;;;;;;;;;;;;;6.25;67.73;102445.78;7369264;19;20339;-62
2022/01/24 06:14:20;;;;;;;;;;;;;;;6.22;67.74;102435.34;7370628;19;19943;-62
2022/01/24 06:16:45;;;;;;;;;;;;;;;6.20;67.50;102437.91;7368925;19;19933;-62
2022/01/24 06:19:10;;;;;;;;;;;;;;;6.19;67.74;102456.03;7363954;19;20017;-63
2022/01/24 06:21:36;;;;;;;;;;;;;;;6.16;68.22;102455.94;7362772;19;19915;-62
2022/01/24 06:24:01;;;;;;;;;;;;;;;6.13;68.08;102458.47;7368547;19;19923;-62
2022/01/24 06:26:27;;;;;;;;;;;;;;;6.09;68.06;102454.06;7365901;19;20339;-62
2022/01/24 06:29:03;;;;;;;;;;;;;;;6.06;67.73;102451.38;2841467;19;10001792;-62
2022/01/24 06:31:28;;;;;;;;;;;;;;;6.03;68.09;102448.72;6144513;19;10001356;-62
2022/01/24 06:33:54;;;;;;;;;;;;;;;5.98;68.18;102449.50;7368004;19;19918;-62
2022/01/24 06:36:19;;;;;;;;;;;;;;;5.95;67.78;102457.19;7365754;19;20437;-62
2022/01/24 06:38:44;;;;;;;;;;;;;;;5.90;68.16;102452.69;7367362;19;19922;-62
2022/01/24 06:41:10;;;;;;;;;;;;;;;5.85;68.23;102452.59;7366787;19;19926;-62
2022/01/24 06:43:35;;;;;;;;;;;;;;;5.81;68.00;102453.34;7366168;19;19934;-62
2022/01/24 06:46:01;;;;;;;;;;;;;;;5.78;68.20;102458.47;7365833;19;19926;-63
2022/01/24 06:48:26;;;;;;;;;;;;;;;5.73;68.36;102457.47;7361569;19;19918;-62
2022/01/24 06:50:52;;;;;;;;;;;;;;;5.70;68.16;102459.97;7369101;19;20418;-62
2022/01/24 06:53:17;;;;;;;;;;;;;;;5.67;68.08;102465.06;7367614;19;19922;-62
2022/01/24 06:55:42;;;;;;;;;;;;;;;5.63;68.22;102473.63;7359956;19;19935;-62
2022/01/24 06:58:07;;;;;;;;;;;;;;;5.61;68.44;102475.28;7367338;19;19922;-62
2022/01/24 07:00:33;;;;;;;;;;;;;;;5.57;68.46;102481.22;7367893;19;19922;-62
2022/01/24 07:02:58;;;;;;;;;;;;;;;5.55;68.37;102482.91;7363958;19;19926;-62
2022/01/24 07:05:24;;;;;;;;;;;;;;;5.52;68.21;102488.88;7361929;19;19935;-62
2022/01/24 07:07:49;;;;;;;;;;;;;;;5.49;68.58;102485.34;7367695;19;19922;-62
2022/01/24 07:10:15;;;;;;;;;;;;;;;5.46;68.35;102481.81;7359536;19;19915;-62
2022/01/24 07:12:40;;;;;;;;;;;;;;;5.44;68.52;102486.09;7359162;19;19915;-62
2022/01/24 07:15:10;;;;;;;;;;;;;;;5.43;68.79;102486.94;7359545;19;19927;-63
2022/01/24 07:20:13;;;;;;;;;;;;;;;5.40;68.64;102492.00;7366757;19;19919;-62
2022/01/24 07:22:38;;;;;;;;;;;;;;;5.39;68.52;102485.09;7367821;19;19922;-61
2022/01/24 07:25:03;;;;;;;;;;;;;;;5.37;68.74;102481.59;7366332;19;19941;-62
2022/01/24 07:27:29;;;;;;;;;;;;;;;5.38;68.69;102490.25;7363245;19;19922;-62
2022/01/24 07:29:54;;;;;;;;;;;;;;;5.38;68.83;102500.59;7358533;19;22097;-62
2022/01/24 07:32:19;;;;;;;;;;;;;;;5.37;68.73;102502.31;7365454;19;19915;-62
2022/01/24 07:34:44;;;;;;;;;;;;;;;5.35;68.88;102509.16;7364173;19;19923;-62
2022/01/24 07:37:10;;;;;;;;;;;;;;;5.33;68.63;102503.06;7366345;19;19919;-63
2022/01/24 07:39:35;;;;;;;;;;;;;;;5.32;68.74;102503.91;7363090;19;19946;-62
2022/01/24 07:42:14;;;;;;;;;;;;;;;5.30;68.94;102515.91;7365134;19;20332;-62
2022/01/24 07:44:39;;;;;;;;;;;;;;;5.27;68.89;102512.34;7353969;19;19927;-63
2022/01/24 07:47:04;;;;;;;;;;;;;;;5.24;68.74;102514.88;7362180;19;19915;-62
2022/01/24 07:49:31;;;;;;;;;;;;;;;5.20;68.91;102519.94;7365822;19;19931;-62
2022/01/24 07:51:56;;;;;;;;;;;;;;;5.17;68.73;102521.56;7360302;19;19921;-62
2022/01/24 07:54:22;;;;;;;;;;;;;;;5.14;68.78;102524.09;7365646;19;19926;-62
2022/01/24 07:56:47;;;;;;;;;;;;;;;5.13;68.58;102528.41;7368195;19;19946;-63
2022/01/24 07:59:14;;;;;;;;;;;;;;;5.13;68.81;102527.53;7375119;19;19934;-62
2022/01/24 08:01:41;;;;;;;;;;;;;;;5.12;68.78;102525.72;7359797;19;19931;-62
2022/01/24 08:04:07;;;;;;;;;;;;;;;5.13;68.78;102528.41;7365394;19;19948;-62
2022/01/24 08:06:32;;;;;;;;;;;;;;;5.14;68.94;102526.69;7358018;19;19911;-62
2022/01/24 08:08:57;;;;;;;;;;;;;;;5.15;69.23;102531.00;7349382;19;19994;-62
2022/01/24 08:11:23;;;;;;;;;;;;;;;5.16;69.25;102525.00;7352531;19;20495;-62
2022/01/24 08:13:49;;;;;;;;;;;;;;;5.17;69.32;102534.50;7356675;19;19921;-62
2022/01/24 08:16:14;;;;;;;;;;;;;;;5.17;68.86;102529.34;7364308;19;20248;-62
2022/01/24 08:18:40;;;;;;;;;;;;;;;5.19;68.93;102538.03;7365989;19;19926;-62
2022/01/24 08:21:05;;;;;;;;;;;;;;;5.18;68.88;102537.16;7365422;19;19918;-62
2022/01/24 08:23:30;;;;;;;;;;;;;;;5.20;68.88;102539.78;7356349;19;19915;-62
2022/01/24 08:25:56;;;;;;;;;;;;;;;5.20;69.13;102539.78;7357529;19;20241;-62
2022/01/24 08:28:21;;;;;;;;;;;;;;;5.20;68.69;102552.75;7351140;19;20652;-62
2022/01/24 08:30:46;;;;;;;;;;;;;;;5.20;69.08;102553.63;7360449;19;19968;-62
2022/01/24 08:33:11;;;;;;;;;;;;;;;5.21;68.87;102550.19;7362109;19;19923;-62
2022/01/24 08:35:45;;;;;;;;;;;;;;;5.24;68.93;102562.38;1477279;19;10021218;-63
2022/01/24 08:38:10;;;;;;;;;;;;;;;5.27;69.27;102565.06;7361847;19;19942;-61
2022/01/24 08:40:38;;;;;;;;;;;;;;;5.28;69.12;102566.81;7363234;19;19923;-62
2022/01/24 08:43:06;;;;;;;;;;;;;;;5.31;69.01;102572.06;7362861;19;19922;-62
2022/01/24 08:48:12;;;;;;;;;;;;;;;5.35;69.36;102581.69;7367350;19;19926;-62
2022/01/24 08:50:38;;;;;;;;;;;;;;;5.38;69.41;102586.09;7363305;19;20494;-63
2022/01/24 08:53:03;;;;;;;;;;;;;;;5.39;69.81;102587.84;7371318;19;19915;-62
2022/01/24 08:55:29;;;;;;;;;;;;;;;5.39;69.42;102586.13;7351978;19;19948;-62
2022/01/24 08:57:55;;;;;;;;;;;;;;;5.40;69.25;102593.06;7364858;19;19978;-62
2022/01/24 09:00:21;;;;;;;;;;;;;;;5.40;69.31;102594.78;7359399;19;19915;-62
2022/01/24 09:02:46;;;;;;;;;;;;;;;5.40;69.62;102589.59;7355179;19;19919;-62
2022/01/24 09:05:11;;;;;;;;;;;;;;;5.40;69.59;102592.19;7358882;19;19935;-61
2022/01/24 09:07:37;;;;;;;;;;;;;;;5.33;69.54;102588.53;7345451;19;19935;-62
2022/01/24 09:10:04;;;;;;;;;;;;;;;5.38;69.22;102597.31;7343828;19;19914;-62
2022/01/24 09:12:29;;;;;;;;;;;;;;;5.38;69.51;102601.63;7347583;19;19935;-62
2022/01/24 09:14:54;;;;;;;;;;;;;;;5.39;69.38;102603.38;7335224;19;19915;-62
2022/01/24 09:17:20;;;;;;;;;;;;;;;5.40;69.76;102608.59;7349722;19;25083;-62
2022/01/24 09:19:45;;;;;;;;;;;;;;;5.45;69.64;102601.84;7348368;19;20796;-62
2022/01/24 09:22:10;;;;;;;;;;;;;;;5.52;70.00;102595.09;7351083;19;19911;-63
2022/01/24 09:24:36;;;;;;;;;;;;;;;5.65;69.96;102598.94;7360839;19;19922;-62
2022/01/24 09:27:02;;;;;;;;;;;;;;;5.78;69.71;102595.88;7351616;19;19930;-62
2022/01/24 09:29:27;;;;;;;;;;;;;;;5.95;70.20;102605.00;7363878;19;19915;-62
2022/01/24 09:31:53;;;;;;;;;;;;;;;6.13;70.08;102596.84;7356864;19;19919;-62
2022/01/24 09:34:20;;;;;;;;;;;;;;;6.34;70.15;102603.41;7357727;19;20381;-62
2022/01/24 09:36:47;;;;;;;;;;;;;;;6.56;70.31;102597.03;7367302;19;19910;-62
2022/01/24 09:39:12;;;;;;;;;;;;;;;6.78;70.02;102599.28;7352918;19;20023;-62
2022/01/24 09:41:38;;;;;;;;;;;;;;;7.01;70.08;102607.59;7356033;19;19940;-62
2022/01/24 09:44:03;;;;;;;;;;;;;;;7.24;70.11;102621.09;7357797;19;19930;-62
2022/01/24 09:46:28;;;;;;;;;;;;;;;7.46;69.66;102617.25;7353515;19;19979;-63
2022/01/24 09:48:54;;;;;;;;;;;;;;;7.68;69.70;102629.81;7358001;19;20585;-62
2022/01/24 09:51:20;;;;;;;;;;;;;;;7.91;69.83;102632.91;7357034;19;19993;-63
2022/01/24 09:53:45;;;;;;;;;;;;;;;8.12;69.45;102631.53;7365674;19;20602;-63
2022/01/24 09:56:10;;;;;;;;;;;;;;;8.33;69.64;102621.50;7370493;19;20341;-62
2022/01/24 09:58:36;;;;;;;;;;;;;;;8.55;69.24;102625.38;7359791;19;19930;-62
2022/01/24 10:01:06;;;;;;;;;;;;;;;8.76;69.05;102627.44;7372270;19;19951;-63
2022/01/24 10:03:32;;;;;;;;;;;;;;;8.99;69.12;102620.88;7360232;19;19931;-62
2022/01/24 10:05:57;;;;;;;;;;;;;;;9.20;69.14;102624.63;7368876;19;19975;-62
2022/01/24 10:08:24;;;;;;;;;;;;;;;9.41;68.93;102624.91;7365401;19;19961;-62
2022/01/24 10:10:50;;;;;;;;;;;;;;;9.65;68.63;102626.09;7366714;19;19958;-63
2022/01/24 10:19:00;;;;;;;;;;;;;;;10.37;68.21;102625.13;7367289;19;20362;-63
2022/01/24 10:21:25;;;;;;;;;;;;;;;10.60;67.98;102620.97;7365046;19;19923;-62
2022/01/24 10:23:50;;;;;;;;;;;;;;;10.84;68.03;102619.41;7369084;19;19930;-63
2022/01/24 10:26:16;;;;;;;;;;;;;;;11.06;67.63;102621.31;7366502;19;19918;-63
2022/01/24 10:28:43;;;;;;;;;;;;;;;11.30;67.41;102624.91;7370303;19;19951;-63
2022/01/24 10:31:28;;;;;;;;;;;;;;;11.57;67.35;102630.28;2668075;19;10001341;-63
2022/01/24 10:34:03;;;;;;;;;;;;;;;11.80;67.18;102625.09;6660067;19;10000555;-63
2022/01/24 10:36:39;;;;;;;;;;;;;;;12.05;67.03;102620.84;7374629;19;19922;-63
2022/01/24 10:39:13;;;;;;;;;;;;;;;12.31;66.46;102633.09;7369166;19;19936;-63
2022/01/24 10:41:59;;;;;;;;;;;;;;;12.58;66.33;102627.88;7369425;19;19990;-63
2022/01/24 10:44:32;;;;;;;;;;;;;;;12.85;66.13;102629.59;7365927;19;19919;-63
2022/01/24 10:47:09;;;;;;;;;;;;;;;13.10;66.18;102630.44;7361262;19;19927;-63
2022/01/24 10:49:34;;;;;;;;;;;;;;;13.36;65.82;102626.91;7364987;19;19930;-62
2022/01/24 10:52:08;;;;;;;;;;;;;;;13.57;65.38;102621.56;7367514;19;19923;-63
2022/01/24 10:54:34;;;;;;;;;;;;;;;13.83;65.31;102626.69;7366406;19;20659;-63
2022/01/24 10:56:59;;;;;;;;;;;;;;;14.03;64.98;102626.56;7358019;19;19974;-63
2022/01/24 10:59:25;;;;;;;;;;;;;;;14.26;64.41;102635.19;7364364;19;19946;-63
2022/01/24 11:01:55;;;;;;;;;;;;;;;14.49;64.55;102626.25;7370059;19;19921;-63
2022/01/24 11:04:23;;;;;;;;;;;;;;;14.70;63.85;102623.47;7360555;19;19915;-63
2022/01/24 11:06:50;;;;;;;;;;;;;;;14.91;64.02;102624.16;7366807;19;19919;-63
2022/01/24 11:09:23;;;;;;;;;;;;;;;15.17;63.77;102627.38;7368317;19;19919;-63
2022/01/24 11:11:53;;;;;;;;;;;;;;;15.41;63.04;102626.22;7365524;19;20415;-63
2022/01/24 11:14:20;;;;;;;;;;;;;;;15.63;63.03;102620.69;7361716;19;19915;-63
2022/01/24 11:16:46;;;;;;;;;;;;;;;15.82;62.39;102617.81;7372631;19;19919;-63
2022/01/24 11:19:18;;;;;;;;;;;;;;;15.99;62.66;102614.06;7369777;19;20382;-63
2022/01/24 11:21:44;;;;;;;;;;;;;;;16.18;62.27;102614.66;7368266;19;19921;-63
2022/01/24 11:24:16;;;;;;;;;;;;;;;16.31;62.59;102605.66;7365575;19;19919;-63
2022/01/24 11:26:41;;;;;;;;;;;;;;;16.43;62.44;102609.88;7355254;19;20385;-63
2022/01/24 11:29:07;;;;;;;;;;;;;;;16.50;62.47;102607.09;7368785;19;19952;-63
2022/01/24 11:31:40;;;;;;;;;;;;;;;16.56;62.18;102611.38;7363229;19;19931;-63
2022/01/24 11:34:11;;;;;;;;;;;;;;;16.62;62.20;102611.28;7361211;19;19919;-63
2022/01/24 11:36:41;;;;;;;;;;;;;;;16.69;61.65;102619.97;7365404;19;19932;-63
2022/01/24 11:39:06;;;;;;;;;;;;;;;16.77;61.91;102616.31;7359034;19;19923;-63
2022/01/24 11:41:36;;;;;;;;;;;;;;;16.85;61.30;102611.78;7366010;19;19944;-63
2022/01/24 11:44:10;;;;;;;;;;;;;;;16.95;61.25;102608.97;7367619;19;19922;-63
2022/01/24 11:46:43;;;;;;;;;;;;;;;17.04;61.00;102614.09;7361470;19;20272;-63
2022/01/24 11:49:13;;;;;;;;;;;;;;;17.20;62.34;102612.88;7362188;19;19929;-63
2022/01/24 11:51:40;;;;;;;;;;;;;;;17.28;60.82;102607.44;7363621;19;20328;-63
2022/01/24 11:54:24;;;;;;;;;;;;;;;17.36;60.70;102606.38;7366645;19;19940;-63
2022/01/24 11:56:51;;;;;;;;;;;;;;;17.51;60.45;102606.97;7359965;19;19931;-63
2022/01/24 11:59:20;;;;;;;;;;;;;;;17.63;60.43;102604.91;7355756;19;19952;-63
2022/01/24 12:01:51;;;;;;;;;;;;;;;17.82;60.44;102599.28;7366347;19;19915;-63
2022/01/24 12:04:37;;;;;;;;;;;;;;;17.98;59.72;102602.44;7365978;19;20331;-63
2022/01/24 12:07:16;;;;;;;;;;;;;;;18.18;59.87;102597.53;7364695;19;19918;-63
2022/01/24 12:09:41;;;;;;;;;;;;;;;18.39;59.29;102601.41;7370991;19;20402;-62
2022/01/24 12:12:24;;;;;;;;;;;;;;;18.60;59.27;102594.72;7363619;19;19939;-64
2022/01/24 12:14:50;;;;;;;;;;;;;;;18.82;59.00;102590.63;7361380;19;19930;-63
2022/01/24 12:17:35;;;;;;;;;;;;;;;19.03;59.78;102598.91;7373733;19;19918;-63
2022/01/24 12:20:31;;;;;;;;;;;;;;;19.19;59.17;102590.47;4038704;19;10001674;-63
2022/01/24 12:23:16;;;;;;;;;;;;;;;19.28;58.64;102589.34;5534602;19;10001267;-63
2022/01/24 12:25:48;;;;;;;;;;;;;;;19.37;58.18;102588.22;7363155;19;19911;-64
2022/01/24 12:28:21;;;;;;;;;;;;;;;19.36;56.96;102587.34;7360140;19;20597;-63
2022/01/24 12:31:06;;;;;;;;;;;;;;;19.31;56.81;102583.97;7361575;19;19915;-64
2022/01/24 12:33:36;;;;;;;;;;;;;;;19.26;56.64;102584.97;7364674;19;19915;-63
2022/01/24 12:36:03;;;;;;;;;;;;;;;19.29;56.63;102593.72;7366343;19;19929;-63
2022/01/24 12:38:45;;;;;;;;;;;;;;;19.36;56.85;102582.06;7353761;19;19918;-63
2022/01/24 12:41:26;;;;;;;;;;;;;;;19.47;57.34;102581.72;7360493;19;20336;-63
2022/01/24 12:44:13;;;;;;;;;;;;;;;19.57;57.19;102571.72;7360674;19;19927;-63
2022/01/24 12:46:38;;;;;;;;;;;;;;;19.67;57.95;102570.56;7356367;19;20348;-63
2022/01/24 12:49:05;;;;;;;;;;;;;;;19.69;56.99;102569.59;7362268;19;19915;-63
2022/01/24 12:51:33;;;;;;;;;;;;;;;19.75;56.50;102573.81;7365570;19;19978;-63
2022/01/24 12:53:58;;;;;;;;;;;;;;;19.86;57.87;102565.53;7363293;19;19930;-64
2022/01/24 12:56:24;;;;;;;;;;;;;;;19.94;57.72;102569.66;7362441;19;19919;-63
2022/01/24 12:58:50;;;;;;;;;;;;;;;20.03;58.17;102573.81;7356495;19;19951;-64
2022/01/24 13:01:30;;;;;;;;;;;;;;;20.05;56.52;102571.97;7365639;19;20760;-61
2022/01/24 13:03:58;;;;;;;;;;;;;;;20.07;56.44;102572.81;7370237;19;19923;-62
2022/01/24 13:06:24;;;;;;;;;;;;;;;20.07;56.93;102583.41;7370549;19;19945;-61
2022/01/24 13:08:55;;;;;;;;;;;;;;;20.04;55.89;102577.34;7363652;19;19948;-61
2022/01/24 13:11:21;;;;;;;;;;;;;;;20.05;56.56;102581.72;7363222;19;19926;-61
2022/01/24 13:14:01;;;;;;;;;;;;;;;20.07;55.81;102574.56;7356988;19;20949;-61
2022/01/24 13:25:31;;;;;;;;;;;;;;;19.47;54.93;102572.91;7257855;19;2005349;-63
2022/01/24 13:28:04;;;;;;;;;;;;;;;19.12;54.56;102577.47;7364049;19;19937;-63
2022/01/24 13:30:41;;;;;;;;;;;;;;;18.74;53.96;102576.72;7369613;19;19919;-63
2022/01/24 13:33:08;;;;;;;;;;;;;;;18.39;53.98;102570.53;7368244;19;19929;-62
2022/01/24 13:35:35;;;;;;;;;;;;;;;18.13;55.16;102565.91;7372501;19;19938;-63
2022/01/24 13:38:02;;;;;;;;;;;;;;;17.89;55.29;102570.03;7370131;19;19950;-63
2022/01/24 13:40:35;;;;;;;;;;;;;;;17.63;55.06;102567.06;7369233;19;19950;-63
2022/01/24 13:43:01;;;;;;;;;;;;;;;17.37;55.02;102568.50;7371325;19;19922;-63
2022/01/24 13:45:26;;;;;;;;;;;;;;;17.09;56.28;102560.31;7359293;19;19928;-63
2022/01/24 13:47:58;;;;;;;;;;;;;;;16.81;55.18;102559.97;7358897;19;19986;-63
2022/01/24 13:50:24;;;;;;;;;;;;;;;16.54;55.49;102563.09;7373243;19;19918;-63
2022/01/24 13:52:49;;;;;;;;;;;;;;;16.39;55.74;102560.72;7378736;19;19929;-64
2022/01/24 13:55:16;;;;;;;;;;;;;;;16.26;56.29;102560.91;7370326;19;19922;-63
2022/01/24 13:57:45;;;;;;;;;;;;;;;16.20;56.13;102558.38;7361100;19;19911;-63
2022/01/24 14:00:11;;;;;;;;;;;;;;;16.14;56.43;102555.84;7362912;19;20671;-63
2022/01/24 14:02:37;;;;;;;;;;;;;;;16.06;56.46;102555.94;7362237;19;19935;-63
2022/01/24 14:05:03;;;;;;;;;;;;;;;16.00;56.79;102557.81;7367694;19;19918;-63
2022/01/24 14:07:34;;;;;;;;;;;;;;;15.91;56.89;102552.69;7368023;19;19925;-63
2022/01/24 14:10:02;;;;;;;;;;;;;;;15.76;57.11;102556.41;7364450;19;19911;-62
2022/01/24 14:12:47;;;;;;;;;;;;;;;15.58;57.92;102561.03;7357162;19;19931;-63
2022/01/24 14:20:32;;;;;;;;;;;;;;;14.78;56.89;102555.88;7365830;19;19918;-63
2022/01/24 14:22:57;;;;;;;;;;;;;;;14.57;56.96;102545.56;7365446;19;19929;-63
2022/01/24 14:25:25;;;;;;;;;;;;;;;14.39;58.21;102550.97;7351646;19;19919;-63
2022/01/24 14:27:55;;;;;;;;;;;;;;;14.20;57.93;102548.50;7370112;19;19952;-63
2022/01/24 14:30:22;;;;;;;;;;;;;;;14.01;57.88;102545.16;7365625;19;20255;-63
2022/01/24 14:32:59;;;;;;;;;;;;;;;13.84;58.28;102549.66;7372215;19;19923;-63
2022/01/24 14:35:25;;;;;;;;;;;;;;;13.66;58.29;102548.00;7366372;19;19918;-63
2022/01/24 14:37:52;;;;;;;;;;;;;;;13.53;58.45;102548.09;7362119;19;19915;-63
2022/01/24 14:40:36;;;;;;;;;;;;;;;13.39;58.38;102548.16;7357872;19;19931;-63
2022/01/24 14:45:46;;;;;;;;;;;;;;;13.06;58.70;102550.00;7365065;19;20002;-63
2022/01/24 14:48:11;;;;;;;;;;;;;;;12.91;59.24;102550.91;7373251;19;19921;-63
2022/01/24 14:50:37;;;;;;;;;;;;;;;12.78;58.74;102553.59;7373479;19;19923;-63
2022/01/24 14:53:05;;;;;;;;;;;;;;;12.62;59.01;102558.88;7376573;19;19923;-63
2022/01/24 14:55:31;;;;;;;;;;;;;;;12.48;59.09;102555.41;7360915;19;19955;-62